sensor_id;sensor_type;location;lat;lon;timestamp;temperature;humidity
21559;DHT22;10940;48.890;8.240;2022-10-15T00:00:37;15.90;99.90
21559;DHT22;10940;48.890;8.240;2022-10-15T00:03:03;15.90;99.90
21559;DHT22;10940;48.890;8.240;2022-10-15T00:05:29;15.90;99.90
21559;DHT22;10940;48.890;8.240;2022-10-15T00:07:54;15.90;99.90
21559;DHT22;10940;48.890;8.240;2022-10-15T00:10:20;15.90;99.90
21559;DHT22;10940;48.890;8.240;2022-10-15T00:12:46;15.90;99.90
21559;DHT22;10940;48.890;8.240;2022-10-15T00:15:12;15.90;99.90
21559;DHT22;10940;48.890;8.240;2022-10-15T00:17:38;15.90;99.90
21559;DHT22;10940;48.890;8.240;2022-10-15T00:20:06;15.90;99.90
21559;DHT22;10940;48.890;8.240;2022-10-15T00:22:32;15.90;99.90
21559;DHT22;10940;48.890;8.240;2022-10-15T00:24:58;15.90;99.90
21559;DHT22;10940;48.890;8.240;2022-10-15T00:27:23;15.90;99.90
21559;DHT22;10940;48.890;8.240;2022-10-15T00:29:49;15.90;99.90
21559;DHT22;10940;48.890;8.240;2022-10-15T00:32:14;15.90;99.90
21559;DHT22;10940;48.890;8.240;2022-10-15T00:34:40;16.00;99.90
21559;DHT22;10940;48.890;8.240;2022-10-15T00:37:06;15.90;99.90
21559;DHT22;10940;48.890;8.240;2022-10-15T00:39:32;16.00;99.90
21559;DHT22;10940;48.890;8.240;2022-10-15T00:41:58;16.00;99.90
21559;DHT22;10940;48.890;8.240;2022-10-15T00:49:37;16.00;99.90
21559;DHT22;10940;48.890;8.240;2022-10-15T00:57:33;16.00;99.90
21559;DHT22;10940;48.890;8.240;2022-10-15T01:00:04;16.00;99.90
21559;DHT22;10940;48.890;8.240;2022-10-15T01:02:30;16.00;99.90
21559;DHT22;10940;48.890;8.240;2022-10-15T01:04:56;16.00;99.90
21559;DHT22;10940;48.890;8.240;2022-10-15T01:07:22;16.00;99.90
21559;DHT22;10940;48.890;8.240;2022-10-15T01:09:47;16.00;99.90
21559;DHT22;10940;48.890;8.240;2022-10-15T01:12:24;16.00;99.90
21559;DHT22;10940;48.890;8.240;2022-10-15T01:15:09;16.00;99.90
21559;DHT22;10940;48.890;8.240;2022-10-15T01:17:56;16.10;99.90
21559;DHT22;10940;48.890;8.240;2022-10-15T01:20:43;16.10;99.90
21559;DHT22;10940;48.890;8.240;2022-10-15T01:26:24;16.10;99.90
21559;DHT22;10940;48.890;8.240;2022-10-15T01:31:53;16.10;99.90
21559;DHT22;10940;48.890;8.240;2022-10-15T01:34:50;16.10;99.90
21559;DHT22;10940;48.890;8.240;2022-10-15T01:39:58;16.10;99.90
21559;DHT22;10940;48.890;8.240;2022-10-15T01:45:39;16.10;99.90
21559;DHT22;10940;48.890;8.240;2022-10-15T01:48:09;16.10;99.90
21559;DHT22;10940;48.890;8.240;2022-10-15T01:50:40;16.10;99.90
21559;DHT22;10940;48.890;8.240;2022-10-15T01:53:08;16.10;99.90
21559;DHT22;10940;48.890;8.240;2022-10-15T01:55:35;16.20;99.90
21559;DHT22;10940;48.890;8.240;2022-10-15T01:58:02;16.10;99.90
21559;DHT22;10940;48.890;8.240;2022-10-15T02:00:29;16.10;99.90
21559;DHT22;10940;48.890;8.240;2022-10-15T02:02:59;16.10;99.90
21559;DHT22;10940;48.890;8.240;2022-10-15T02:05:29;16.10;99.90
21559;DHT22;10940;48.890;8.240;2022-10-15T02:10:54;16.10;99.90
21559;DHT22;10940;48.890;8.240;2022-10-15T02:16:59;16.10;99.90
21559;DHT22;10940;48.890;8.240;2022-10-15T02:19:52;16.10;99.90
21559;DHT22;10940;48.890;8.240;2022-10-15T02:22:31;16.10;99.90
21559;DHT22;10940;48.890;8.240;2022-10-15T02:25:04;16.20;99.90
21559;DHT22;10940;48.890;8.240;2022-10-15T02:27:32;16.20;99.90
21559;DHT22;10940;48.890;8.240;2022-10-15T02:30:01;16.10;99.90
21559;DHT22;10940;48.890;8.240;2022-10-15T02:32:28;16.20;99.90
21559;DHT22;10940;48.890;8.240;2022-10-15T02:34:54;16.10;99.90
21559;DHT22;10940;48.890;8.240;2022-10-15T02:37:24;16.20;99.90
21559;DHT22;10940;48.890;8.240;2022-10-15T02:39:51;16.20;99.90
21559;DHT22;10940;48.890;8.240;2022-10-15T02:42:17;16.20;99.90
21559;DHT22;10940;48.890;8.240;2022-10-15T02:44:44;16.20;99.90
21559;DHT22;10940;48.890;8.240;2022-10-15T02:47:10;16.20;99.90
21559;DHT22;10940;48.890;8.240;2022-10-15T02:49:36;16.10;99.90
21559;DHT22;10940;48.890;8.240;2022-10-15T02:52:02;16.20;99.90
21559;DHT22;10940;48.890;8.240;2022-10-15T02:54:27;16.20;99.90
21559;DHT22;10940;48.890;8.240;2022-10-15T02:56:53;16.20;99.90
21559;DHT22;10940;48.890;8.240;2022-10-15T02:59:19;16.30;99.90
21559;DHT22;10940;48.890;8.240;2022-10-15T03:01:45;16.30;99.90
21559;DHT22;10940;48.890;8.240;2022-10-15T03:04:10;16.20;99.90
21559;DHT22;10940;48.890;8.240;2022-10-15T03:06:36;16.30;99.90
21559;DHT22;10940;48.890;8.240;2022-10-15T03:09:02;16.20;99.90
21559;DHT22;10940;48.890;8.240;2022-10-15T03:11:28;16.20;99.90
21559;DHT22;10940;48.890;8.240;2022-10-15T03:13:54;16.20;99.90
21559;DHT22;10940;48.890;8.240;2022-10-15T03:16:20;16.30;99.90
21559;DHT22;10940;48.890;8.240;2022-10-15T03:18:45;16.20;99.90
21559;DHT22;10940;48.890;8.240;2022-10-15T03:21:11;16.20;99.90
21559;DHT22;10940;48.890;8.240;2022-10-15T03:23:38;16.20;99.90
21559;DHT22;10940;48.890;8.240;2022-10-15T03:26:03;16.20;99.90
21559;DHT22;10940;48.890;8.240;2022-10-15T03:28:29;16.20;99.90
21559;DHT22;10940;48.890;8.240;2022-10-15T03:30:54;16.20;99.90
21559;DHT22;10940;48.890;8.240;2022-10-15T03:33:20;16.20;99.90
21559;DHT22;10940;48.890;8.240;2022-10-15T03:35:45;16.30;99.90
21559;DHT22;10940;48.890;8.240;2022-10-15T03:38:11;16.20;99.90
21559;DHT22;10940;48.890;8.240;2022-10-15T03:40:37;16.30;99.90
21559;DHT22;10940;48.890;8.240;2022-10-15T03:43:02;16.20;99.90
21559;DHT22;10940;48.890;8.240;2022-10-15T03:45:28;16.20;99.90
21559;DHT22;10940;48.890;8.240;2022-10-15T03:47:54;16.20;99.90
21559;DHT22;10940;48.890;8.240;2022-10-15T03:50:19;16.20;99.90
21559;DHT22;10940;48.890;8.240;2022-10-15T03:52:45;16.20;99.90
21559;DHT22;10940;48.890;8.240;2022-10-15T03:55:11;16.20;99.90
21559;DHT22;10940;48.890;8.240;2022-10-15T03:57:37;16.30;99.90
21559;DHT22;10940;48.890;8.240;2022-10-15T04:00:05;16.20;99.90
21559;DHT22;10940;48.890;8.240;2022-10-15T04:02:32;16.20;99.90
21559;DHT22;10940;48.890;8.240;2022-10-15T04:04:58;16.20;99.90
21559;DHT22;10940;48.890;8.240;2022-10-15T04:07:23;16.20;99.90
21559;DHT22;10940;48.890;8.240;2022-10-15T04:09:49;16.20;99.90
21559;DHT22;10940;48.890;8.240;2022-10-15T04:12:16;16.20;99.90
21559;DHT22;10940;48.890;8.240;2022-10-15T04:14:42;16.20;99.90
21559;DHT22;10940;48.890;8.240;2022-10-15T04:17:07;16.20;99.90
21559;DHT22;10940;48.890;8.240;2022-10-15T04:19:33;16.20;99.90
21559;DHT22;10940;48.890;8.240;2022-10-15T04:21:59;16.20;99.90
21559;DHT22;10940;48.890;8.240;2022-10-15T04:24:24;16.20;99.90
21559;DHT22;10940;48.890;8.240;2022-10-15T04:26:50;16.20;99.90
21559;DHT22;10940;48.890;8.240;2022-10-15T04:29:16;16.20;99.90
21559;DHT22;10940;48.890;8.240;2022-10-15T04:31:42;16.10;99.90
21559;DHT22;10940;48.890;8.240;2022-10-15T04:34:08;16.20;99.90
21559;DHT22;10940;48.890;8.240;2022-10-15T04:36:34;16.10;99.90
21559;DHT22;10940;48.890;8.240;2022-10-15T04:39:01;16.10;99.90
21559;DHT22;10940;48.890;8.240;2022-10-15T04:41:27;16.10;99.90
21559;DHT22;10940;48.890;8.240;2022-10-15T04:43:52;16.10;99.90
21559;DHT22;10940;48.890;8.240;2022-10-15T04:46:18;16.10;99.90
21559;DHT22;10940;48.890;8.240;2022-10-15T04:48:47;16.10;99.90
21559;DHT22;10940;48.890;8.240;2022-10-15T04:51:19;16.10;99.90
21559;DHT22;10940;48.890;8.240;2022-10-15T04:53:45;16.10;99.90
21559;DHT22;10940;48.890;8.240;2022-10-15T04:56:13;16.00;99.90
21559;DHT22;10940;48.890;8.240;2022-10-15T04:58:41;16.10;99.90
21559;DHT22;10940;48.890;8.240;2022-10-15T05:01:10;16.00;99.90
21559;DHT22;10940;48.890;8.240;2022-10-15T05:03:37;16.00;99.90
21559;DHT22;10940;48.890;8.240;2022-10-15T05:06:05;16.00;99.90
21559;DHT22;10940;48.890;8.240;2022-10-15T05:08:32;16.00;99.90
21559;DHT22;10940;48.890;8.240;2022-10-15T05:11:06;16.00;99.90
21559;DHT22;10940;48.890;8.240;2022-10-15T05:13:32;16.00;99.90
21559;DHT22;10940;48.890;8.240;2022-10-15T05:16:40;16.00;99.90
21559;DHT22;10940;48.890;8.240;2022-10-15T05:19:04;16.00;99.90
21559;DHT22;10940;48.890;8.240;2022-10-15T05:21:30;16.00;99.90
21559;DHT22;10940;48.890;8.240;2022-10-15T05:23:57;15.90;99.90
21559;DHT22;10940;48.890;8.240;2022-10-15T05:26:24;16.00;99.90
21559;DHT22;10940;48.890;8.240;2022-10-15T05:28:50;16.00;99.90
21559;DHT22;10940;48.890;8.240;2022-10-15T05:31:21;15.90;99.90
21559;DHT22;10940;48.890;8.240;2022-10-15T05:33:48;16.00;99.90
21559;DHT22;10940;48.890;8.240;2022-10-15T05:36:19;16.00;99.90
21559;DHT22;10940;48.890;8.240;2022-10-15T05:38:51;16.00;99.90
21559;DHT22;10940;48.890;8.240;2022-10-15T05:41:17;16.00;99.90
21559;DHT22;10940;48.890;8.240;2022-10-15T05:43:45;16.00;99.90
21559;DHT22;10940;48.890;8.240;2022-10-15T05:46:12;16.00;99.90
21559;DHT22;10940;48.890;8.240;2022-10-15T05:48:37;16.00;99.90
21559;DHT22;10940;48.890;8.240;2022-10-15T05:51:05;16.00;99.90
21559;DHT22;10940;48.890;8.240;2022-10-15T05:53:31;16.00;99.90
21559;DHT22;10940;48.890;8.240;2022-10-15T05:55:57;16.00;99.90
21559;DHT22;10940;48.890;8.240;2022-10-15T05:58:24;16.00;99.90
21559;DHT22;10940;48.890;8.240;2022-10-15T06:00:55;15.90;99.90
21559;DHT22;10940;48.890;8.240;2022-10-15T06:03:21;16.00;99.90
21559;DHT22;10940;48.890;8.240;2022-10-15T06:05:47;15.90;99.90
21559;DHT22;10940;48.890;8.240;2022-10-15T06:08:12;16.00;99.90
21559;DHT22;10940;48.890;8.240;2022-10-15T06:10:38;15.90;99.90
21559;DHT22;10940;48.890;8.240;2022-10-15T06:13:04;15.90;99.90
21559;DHT22;10940;48.890;8.240;2022-10-15T06:15:30;15.90;99.90
21559;DHT22;10940;48.890;8.240;2022-10-15T06:17:56;16.00;99.90
21559;DHT22;10940;48.890;8.240;2022-10-15T06:20:22;15.90;99.90
21559;DHT22;10940;48.890;8.240;2022-10-15T06:22:47;16.00;99.90
21559;DHT22;10940;48.890;8.240;2022-10-15T06:25:13;15.90;99.90
21559;DHT22;10940;48.890;8.240;2022-10-15T06:27:39;16.00;99.90
21559;DHT22;10940;48.890;8.240;2022-10-15T06:30:06;16.00;99.90
21559;DHT22;10940;48.890;8.240;2022-10-15T06:32:31;16.00;99.90
21559;DHT22;10940;48.890;8.240;2022-10-15T06:34:57;16.00;99.90
21559;DHT22;10940;48.890;8.240;2022-10-15T06:37:23;16.00;99.90
21559;DHT22;10940;48.890;8.240;2022-10-15T06:39:48;15.90;99.90
21559;DHT22;10940;48.890;8.240;2022-10-15T06:42:14;16.00;99.90
21559;DHT22;10940;48.890;8.240;2022-10-15T06:44:40;16.00;99.90
21559;DHT22;10940;48.890;8.240;2022-10-15T06:47:05;16.00;99.90
21559;DHT22;10940;48.890;8.240;2022-10-15T06:49:31;16.00;99.90
21559;DHT22;10940;48.890;8.240;2022-10-15T06:51:57;16.10;99.90
21559;DHT22;10940;48.890;8.240;2022-10-15T06:54:23;16.10;99.90
21559;DHT22;10940;48.890;8.240;2022-10-15T06:56:49;16.20;99.90
21559;DHT22;10940;48.890;8.240;2022-10-15T06:59:15;16.20;99.90
21559;DHT22;10940;48.890;8.240;2022-10-15T07:01:41;16.30;99.90
21559;DHT22;10940;48.890;8.240;2022-10-15T07:04:06;16.30;99.90
21559;DHT22;10940;48.890;8.240;2022-10-15T07:06:34;16.30;99.90
21559;DHT22;10940;48.890;8.240;2022-10-15T07:09:03;16.30;99.90
21559;DHT22;10940;48.890;8.240;2022-10-15T07:11:30;16.40;99.90
21559;DHT22;10940;48.890;8.240;2022-10-15T07:13:55;16.30;99.90
21559;DHT22;10940;48.890;8.240;2022-10-15T07:16:23;16.30;99.90
21559;DHT22;10940;48.890;8.240;2022-10-15T07:18:49;16.30;99.90
21559;DHT22;10940;48.890;8.240;2022-10-15T07:21:14;16.30;99.90
21559;DHT22;10940;48.890;8.240;2022-10-15T07:23:40;16.20;99.90
21559;DHT22;10940;48.890;8.240;2022-10-15T07:26:06;16.20;99.90
21559;DHT22;10940;48.890;8.240;2022-10-15T07:28:32;16.30;99.90
21559;DHT22;10940;48.890;8.240;2022-10-15T07:31:05;16.20;99.90
21559;DHT22;10940;48.890;8.240;2022-10-15T07:33:31;16.20;99.90
21559;DHT22;10940;48.890;8.240;2022-10-15T07:36:05;16.30;99.90
21559;DHT22;10940;48.890;8.240;2022-10-15T07:38:33;16.30;99.90
21559;DHT22;10940;48.890;8.240;2022-10-15T07:41:00;16.30;99.90
21559;DHT22;10940;48.890;8.240;2022-10-15T07:43:26;16.30;99.90
21559;DHT22;10940;48.890;8.240;2022-10-15T07:45:52;16.30;99.90
21559;DHT22;10940;48.890;8.240;2022-10-15T07:48:18;16.30;99.90
21559;DHT22;10940;48.890;8.240;2022-10-15T07:50:44;16.30;99.90
21559;DHT22;10940;48.890;8.240;2022-10-15T07:53:10;16.40;99.90
21559;DHT22;10940;48.890;8.240;2022-10-15T07:55:35;16.40;99.90
21559;DHT22;10940;48.890;8.240;2022-10-15T07:58:01;16.40;99.90
21559;DHT22;10940;48.890;8.240;2022-10-15T08:00:30;16.40;99.90
21559;DHT22;10940;48.890;8.240;2022-10-15T08:02:56;16.40;99.90
21559;DHT22;10940;48.890;8.240;2022-10-15T08:05:22;16.40;99.90
21559;DHT22;10940;48.890;8.240;2022-10-15T08:07:48;16.40;99.90
21559;DHT22;10940;48.890;8.240;2022-10-15T08:10:14;16.40;99.90
21559;DHT22;10940;48.890;8.240;2022-10-15T08:12:40;16.40;99.90
21559;DHT22;10940;48.890;8.240;2022-10-15T08:15:07;16.40;99.90
21559;DHT22;10940;48.890;8.240;2022-10-15T08:17:33;16.40;99.90
21559;DHT22;10940;48.890;8.240;2022-10-15T08:19:58;16.40;99.90
21559;DHT22;10940;48.890;8.240;2022-10-15T08:22:24;16.40;99.90
21559;DHT22;10940;48.890;8.240;2022-10-15T08:24:49;16.50;99.90
21559;DHT22;10940;48.890;8.240;2022-10-15T08:27:16;16.50;99.90
21559;DHT22;10940;48.890;8.240;2022-10-15T08:29:42;16.50;99.90
21559;DHT22;10940;48.890;8.240;2022-10-15T08:32:08;16.50;99.90
21559;DHT22;10940;48.890;8.240;2022-10-15T08:34:33;16.50;99.90
21559;DHT22;10940;48.890;8.240;2022-10-15T08:36:59;16.60;99.90
21559;DHT22;10940;48.890;8.240;2022-10-15T08:39:25;16.60;99.90
21559;DHT22;10940;48.890;8.240;2022-10-15T08:41:53;16.60;99.90
21559;DHT22;10940;48.890;8.240;2022-10-15T08:46:53;16.60;99.90
21559;DHT22;10940;48.890;8.240;2022-10-15T08:52:17;16.60;99.90
21559;DHT22;10940;48.890;8.240;2022-10-15T08:54:45;16.50;99.90
21559;DHT22;10940;48.890;8.240;2022-10-15T08:57:38;16.50;99.90
21559;DHT22;10940;48.890;8.240;2022-10-15T09:05:52;16.50;99.90
21559;DHT22;10940;48.890;8.240;2022-10-15T09:11:24;16.70;99.90
21559;DHT22;10940;48.890;8.240;2022-10-15T09:13:54;16.70;99.90
21559;DHT22;10940;48.890;8.240;2022-10-15T09:16:29;16.70;99.90
21559;DHT22;10940;48.890;8.240;2022-10-15T09:18:57;16.90;99.90
21559;DHT22;10940;48.890;8.240;2022-10-15T09:21:25;16.90;99.90
21559;DHT22;10940;48.890;8.240;2022-10-15T09:23:55;16.90;99.90
21559;DHT22;10940;48.890;8.240;2022-10-15T09:26:56;17.00;99.90
21559;DHT22;10940;48.890;8.240;2022-10-15T09:29:33;17.00;99.90
21559;DHT22;10940;48.890;8.240;2022-10-15T09:32:20;17.00;99.90
21559;DHT22;10940;48.890;8.240;2022-10-15T09:35:15;17.00;99.90
21559;DHT22;10940;48.890;8.240;2022-10-15T09:43:11;16.90;99.90
21559;DHT22;10940;48.890;8.240;2022-10-15T09:45:37;16.90;99.90
21559;DHT22;10940;48.890;8.240;2022-10-15T09:48:12;16.90;99.90
21559;DHT22;10940;48.890;8.240;2022-10-15T09:50:43;17.00;99.90
21559;DHT22;10940;48.890;8.240;2022-10-15T09:53:18;16.90;99.90
21559;DHT22;10940;48.890;8.240;2022-10-15T09:56:13;17.00;99.90
21559;DHT22;10940;48.890;8.240;2022-10-15T09:58:51;16.90;99.90
21559;DHT22;10940;48.890;8.240;2022-10-15T10:01:20;16.90;99.90
21559;DHT22;10940;48.890;8.240;2022-10-15T10:03:53;17.00;99.90
21559;DHT22;10940;48.890;8.240;2022-10-15T10:06:21;17.00;99.90
21559;DHT22;10940;48.890;8.240;2022-10-15T10:11:19;17.10;99.90
21559;DHT22;10940;48.890;8.240;2022-10-15T10:16:15;17.30;99.90
21559;DHT22;10940;48.890;8.240;2022-10-15T10:18:41;17.40;99.90
21559;DHT22;10940;48.890;8.240;2022-10-15T10:21:44;17.50;99.90
21559;DHT22;10940;48.890;8.240;2022-10-15T10:24:27;17.60;99.90
21559;DHT22;10940;48.890;8.240;2022-10-15T10:26:55;17.60;99.90
21559;DHT22;10940;48.890;8.240;2022-10-15T10:29:22;17.60;99.90
21559;DHT22;10940;48.890;8.240;2022-10-15T10:31:48;17.70;99.90
21559;DHT22;10940;48.890;8.240;2022-10-15T10:34:27;17.60;99.90
21559;DHT22;10940;48.890;8.240;2022-10-15T10:36:53;17.70;99.90
21559;DHT22;10940;48.890;8.240;2022-10-15T10:39:31;17.70;99.90
21559;DHT22;10940;48.890;8.240;2022-10-15T10:41:59;17.80;99.90
21559;DHT22;10940;48.890;8.240;2022-10-15T10:44:30;17.80;99.90
21559;DHT22;10940;48.890;8.240;2022-10-15T10:49:36;17.90;99.90
21559;DHT22;10940;48.890;8.240;2022-10-15T10:52:03;17.90;99.90
21559;DHT22;10940;48.890;8.240;2022-10-15T10:54:30;18.00;99.90
21559;DHT22;10940;48.890;8.240;2022-10-15T10:56:58;18.00;99.90
21559;DHT22;10940;48.890;8.240;2022-10-15T10:59:36;18.00;99.90
21559;DHT22;10940;48.890;8.240;2022-10-15T11:02:07;18.00;99.90
21559;DHT22;10940;48.890;8.240;2022-10-15T11:04:35;18.00;99.90
21559;DHT22;10940;48.890;8.240;2022-10-15T11:07:14;18.00;99.90
21559;DHT22;10940;48.890;8.240;2022-10-15T11:12:27;18.00;99.90
21559;DHT22;10940;48.890;8.240;2022-10-15T11:20:32;18.00;99.90
21559;DHT22;10940;48.890;8.240;2022-10-15T11:29:23;18.10;99.90
21559;DHT22;10940;48.890;8.240;2022-10-15T11:41:02;18.00;99.90
21559;DHT22;10940;48.890;8.240;2022-10-15T11:48:54;18.00;99.90
21559;DHT22;10940;48.890;8.240;2022-10-15T11:51:33;18.00;99.90
21559;DHT22;10940;48.890;8.240;2022-10-15T11:57:02;17.90;99.90
21559;DHT22;10940;48.890;8.240;2022-10-15T11:59:33;18.00;99.90
21559;DHT22;10940;48.890;8.240;2022-10-15T12:02:17;18.00;99.90
21559;DHT22;10940;48.890;8.240;2022-10-15T12:04:50;18.00;99.90
21559;DHT22;10940;48.890;8.240;2022-10-15T12:07:32;18.00;99.90
21559;DHT22;10940;48.890;8.240;2022-10-15T12:15:29;17.80;99.90
21559;DHT22;10940;48.890;8.240;2022-10-15T12:18:19;17.70;99.90
21559;DHT22;10940;48.890;8.240;2022-10-15T12:20:47;17.60;99.90
21559;DHT22;10940;48.890;8.240;2022-10-15T12:23:40;17.60;99.90
21559;DHT22;10940;48.890;8.240;2022-10-15T12:28:52;17.50;99.90
21559;DHT22;10940;48.890;8.240;2022-10-15T12:31:18;17.50;99.90
21559;DHT22;10940;48.890;8.240;2022-10-15T12:33:51;17.50;99.90
21559;DHT22;10940;48.890;8.240;2022-10-15T12:38:58;17.50;99.90
21559;DHT22;10940;48.890;8.240;2022-10-15T12:41:45;17.50;99.90
21559;DHT22;10940;48.890;8.240;2022-10-15T12:44:17;17.40;99.90
21559;DHT22;10940;48.890;8.240;2022-10-15T12:46:45;17.40;99.90
21559;DHT22;10940;48.890;8.240;2022-10-15T12:51:53;17.40;99.90
21559;DHT22;10940;48.890;8.240;2022-10-15T12:54:40;17.30;99.90
21559;DHT22;10940;48.890;8.240;2022-10-15T13:02:47;17.10;99.90
21559;DHT22;10940;48.890;8.240;2022-10-15T13:05:26;17.00;99.90
21559;DHT22;10940;48.890;8.240;2022-10-15T13:07:53;17.00;99.90
21559;DHT22;10940;48.890;8.240;2022-10-15T13:10:39;17.00;99.90
21559;DHT22;10940;48.890;8.240;2022-10-15T13:13:12;16.90;99.90
21559;DHT22;10940;48.890;8.240;2022-10-15T13:15:39;17.00;99.90
21559;DHT22;10940;48.890;8.240;2022-10-15T13:18:09;17.00;99.90
21559;DHT22;10940;48.890;8.240;2022-10-15T13:20:39;17.00;99.90
21559;DHT22;10940;48.890;8.240;2022-10-15T13:23:23;16.90;99.90
21559;DHT22;10940;48.890;8.240;2022-10-15T13:25:50;16.90;99.90
21559;DHT22;10940;48.890;8.240;2022-10-15T13:28:33;16.80;99.90
21559;DHT22;10940;48.890;8.240;2022-10-15T13:31:27;16.80;99.90
21559;DHT22;10940;48.890;8.240;2022-10-15T13:33:56;16.80;99.90
21559;DHT22;10940;48.890;8.240;2022-10-15T13:36:31;16.80;99.90
21559;DHT22;10940;48.890;8.240;2022-10-15T13:39:31;16.80;99.90
21559;DHT22;10940;48.890;8.240;2022-10-15T13:44:37;16.70;99.90
21559;DHT22;10940;48.890;8.240;2022-10-15T13:47:22;16.70;99.90
21559;DHT22;10940;48.890;8.240;2022-10-15T13:49:49;16.80;99.90
21559;DHT22;10940;48.890;8.240;2022-10-15T13:52:14;16.70;99.90
21559;DHT22;10940;48.890;8.240;2022-10-15T13:54:43;16.70;99.90
21559;DHT22;10940;48.890;8.240;2022-10-15T13:57:13;16.70;99.90
21559;DHT22;10940;48.890;8.240;2022-10-15T13:59:43;16.60;99.90
21559;DHT22;10940;48.890;8.240;2022-10-15T14:02:11;16.50;99.90
21559;DHT22;10940;48.890;8.240;2022-10-15T14:04:37;16.50;99.90
21559;DHT22;10940;48.890;8.240;2022-10-15T14:07:23;16.50;99.90
21559;DHT22;10940;48.890;8.240;2022-10-15T14:09:51;16.40;99.90
21559;DHT22;10940;48.890;8.240;2022-10-15T14:12:17;16.40;99.90
21559;DHT22;10940;48.890;8.240;2022-10-15T14:14:44;16.40;99.90
21559;DHT22;10940;48.890;8.240;2022-10-15T14:17:22;16.50;99.90
21559;DHT22;10940;48.890;8.240;2022-10-15T14:19:55;16.50;99.90
21559;DHT22;10940;48.890;8.240;2022-10-15T14:22:23;16.60;99.90
21559;DHT22;10940;48.890;8.240;2022-10-15T14:24:52;16.60;99.90
21559;DHT22;10940;48.890;8.240;2022-10-15T14:27:23;16.70;99.90
21559;DHT22;10940;48.890;8.240;2022-10-15T14:29:52;16.80;99.90
21559;DHT22;10940;48.890;8.240;2022-10-15T14:34:57;16.80;99.90
21559;DHT22;10940;48.890;8.240;2022-10-15T14:42:37;16.90;99.90
21559;DHT22;10940;48.890;8.240;2022-10-15T14:45:22;16.80;99.90
21559;DHT22;10940;48.890;8.240;2022-10-15T14:47:56;16.90;99.90
21559;DHT22;10940;48.890;8.240;2022-10-15T14:50:30;16.90;99.90
21559;DHT22;10940;48.890;8.240;2022-10-15T14:52:57;16.90;99.90
21559;DHT22;10940;48.890;8.240;2022-10-15T14:55:50;16.90;99.90
21559;DHT22;10940;48.890;8.240;2022-10-15T14:58:19;16.90;99.90
21559;DHT22;10940;48.890;8.240;2022-10-15T15:00:55;16.90;99.90
21559;DHT22;10940;48.890;8.240;2022-10-15T15:03:26;17.00;99.90
21559;DHT22;10940;48.890;8.240;2022-10-15T15:05:54;17.00;99.90
21559;DHT22;10940;48.890;8.240;2022-10-15T15:08:20;17.00;99.90
21559;DHT22;10940;48.890;8.240;2022-10-15T15:10:47;17.00;99.90
21559;DHT22;10940;48.890;8.240;2022-10-15T15:13:22;17.00;99.90
21559;DHT22;10940;48.890;8.240;2022-10-15T15:15:48;17.00;99.90
21559;DHT22;10940;48.890;8.240;2022-10-15T15:18:15;17.00;99.90
21559;DHT22;10940;48.890;8.240;2022-10-15T15:20:41;16.90;99.90
21559;DHT22;10940;48.890;8.240;2022-10-15T15:23:16;16.90;99.90
21559;DHT22;10940;48.890;8.240;2022-10-15T15:25:42;16.90;99.90
21559;DHT22;10940;48.890;8.240;2022-10-15T15:28:13;16.90;99.90
21559;DHT22;10940;48.890;8.240;2022-10-15T15:30:40;16.70;99.90
21559;DHT22;10940;48.890;8.240;2022-10-15T15:33:11;16.80;99.90
21559;DHT22;10940;48.890;8.240;2022-10-15T15:35:43;16.70;99.90
21559;DHT22;10940;48.890;8.240;2022-10-15T15:38:18;16.80;99.90
21559;DHT22;10940;48.890;8.240;2022-10-15T15:40:45;16.80;99.90
21559;DHT22;10940;48.890;8.240;2022-10-15T15:43:12;16.80;99.90
21559;DHT22;10940;48.890;8.240;2022-10-15T15:45:38;16.80;99.90
21559;DHT22;10940;48.890;8.240;2022-10-15T15:48:04;16.80;99.90
21559;DHT22;10940;48.890;8.240;2022-10-15T15:50:30;16.80;99.90
21559;DHT22;10940;48.890;8.240;2022-10-15T15:52:56;16.90;99.90
21559;DHT22;10940;48.890;8.240;2022-10-15T15:55:22;16.90;99.90
21559;DHT22;10940;48.890;8.240;2022-10-15T15:57:48;16.80;99.90
21559;DHT22;10940;48.890;8.240;2022-10-15T16:00:14;16.90;99.90
21559;DHT22;10940;48.890;8.240;2022-10-15T16:02:40;16.90;99.90
21559;DHT22;10940;48.890;8.240;2022-10-15T16:05:07;16.80;99.90
21559;DHT22;10940;48.890;8.240;2022-10-15T16:07:33;16.80;99.90
21559;DHT22;10940;48.890;8.240;2022-10-15T16:09:59;16.80;99.90
21559;DHT22;10940;48.890;8.240;2022-10-15T16:12:25;16.80;99.90
21559;DHT22;10940;48.890;8.240;2022-10-15T16:14:50;16.80;99.90
21559;DHT22;10940;48.890;8.240;2022-10-15T16:17:16;16.80;99.90
21559;DHT22;10940;48.890;8.240;2022-10-15T16:19:42;16.80;99.90
21559;DHT22;10940;48.890;8.240;2022-10-15T16:22:08;16.80;99.90
21559;DHT22;10940;48.890;8.240;2022-10-15T16:24:34;16.80;99.90
21559;DHT22;10940;48.890;8.240;2022-10-15T16:27:00;16.70;99.90
21559;DHT22;10940;48.890;8.240;2022-10-15T16:29:26;16.70;99.90
21559;DHT22;10940;48.890;8.240;2022-10-15T16:31:51;16.70;99.90
21559;DHT22;10940;48.890;8.240;2022-10-15T16:34:17;16.70;99.90
21559;DHT22;10940;48.890;8.240;2022-10-15T16:36:43;16.60;99.90
21559;DHT22;10940;48.890;8.240;2022-10-15T16:39:09;16.60;99.90
21559;DHT22;10940;48.890;8.240;2022-10-15T16:41:34;16.60;99.90
21559;DHT22;10940;48.890;8.240;2022-10-15T16:44:00;16.60;99.90
21559;DHT22;10940;48.890;8.240;2022-10-15T16:46:25;16.60;99.90
21559;DHT22;10940;48.890;8.240;2022-10-15T16:48:53;16.60;99.90
21559;DHT22;10940;48.890;8.240;2022-10-15T16:51:18;16.70;99.90
21559;DHT22;10940;48.890;8.240;2022-10-15T16:53:47;16.60;99.90
21559;DHT22;10940;48.890;8.240;2022-10-15T16:56:14;16.60;99.90
21559;DHT22;10940;48.890;8.240;2022-10-15T16:58:40;16.60;99.90
21559;DHT22;10940;48.890;8.240;2022-10-15T17:01:09;16.50;99.90
21559;DHT22;10940;48.890;8.240;2022-10-15T17:03:37;16.50;99.90
21559;DHT22;10940;48.890;8.240;2022-10-15T17:06:09;16.50;99.90
21559;DHT22;10940;48.890;8.240;2022-10-15T17:08:37;16.50;99.90
21559;DHT22;10940;48.890;8.240;2022-10-15T17:11:03;16.50;99.90
21559;DHT22;10940;48.890;8.240;2022-10-15T17:13:28;16.50;99.90
21559;DHT22;10940;48.890;8.240;2022-10-15T17:15:54;16.50;99.90
21559;DHT22;10940;48.890;8.240;2022-10-15T17:18:19;16.50;99.90
21559;DHT22;10940;48.890;8.240;2022-10-15T17:20:46;16.50;99.90
21559;DHT22;10940;48.890;8.240;2022-10-15T17:23:14;16.50;99.90
21559;DHT22;10940;48.890;8.240;2022-10-15T17:25:40;16.40;99.90
21559;DHT22;10940;48.890;8.240;2022-10-15T17:28:06;16.50;99.90
21559;DHT22;10940;48.890;8.240;2022-10-15T17:30:34;16.50;99.90
21559;DHT22;10940;48.890;8.240;2022-10-15T17:33:02;16.50;99.90
21559;DHT22;10940;48.890;8.240;2022-10-15T17:35:27;16.40;99.90
21559;DHT22;10940;48.890;8.240;2022-10-15T17:37:56;16.50;99.90
21559;DHT22;10940;48.890;8.240;2022-10-15T17:40:22;16.50;99.90